Station Historical Data
Daily Summary for March 20, 2017 Units:  English    Metric   Both
« Previous Day
Next Day »
Daily Weekly Monthly Yearly Custom
  High: Low: Average:
Temperature: 40.6 °F 24.8 °F 34.3 °F
Dew Point: 31.6 °F 22.8 °F 28.9 °F
Humidity: 93% 68% 81%
Wind Speed: 9.0mph 0.0mph 1.6mph
Wind Gust: 12.0mph - -
Wind- - SW
Pressure: 30.30 in 30.02 in -
Precipitation: 0.00 in    
Historical Graphs
 
 
Tabular Data for March 20, 2017
Time Temperature Dew Point Pressure Wind Wind Speed Wind Gust Humidity Rainfall Rate (Hourly)
00:04 30.0 °F 27.4 °F 30.30 in SW 2.0 mph 3.0 mph 90% 0.00 in
00:09 30.0 °F 27.4 °F 30.30 in SW 2.0 mph 3.0 mph 90% 0.00 in
00:14 30.2 °F 27.6 °F 30.30 in SW 1.0 mph 3.0 mph 90% 0.00 in
00:19 30.1 °F 27.5 °F 30.30 in SW 1.0 mph 4.0 mph 90% 0.00 in
00:24 30.2 °F 27.6 °F 30.30 in SW 1.0 mph 4.0 mph 90% 0.00 in
00:29 30.2 °F 27.6 °F 30.29 in SSW 3.0 mph 3.0 mph 90% 0.00 in
00:34 30.1 °F 27.5 °F 30.29 in SSW 1.0 mph 3.0 mph 90% 0.00 in
00:39 29.8 °F 27.2 °F 30.29 in Calm   3.0 mph 90% 0.00 in
00:44 29.7 °F 27.4 °F 30.29 in SSW 1.0 mph 3.0 mph 91% 0.00 in
00:49 29.6 °F 27.3 °F 30.28 in SW 1.0 mph 3.0 mph 91% 0.00 in
00:54 29.4 °F 27.1 °F 30.28 in SW 1.0 mph 3.0 mph 91% 0.00 in
00:59 29.1 °F 26.8 °F 30.28 in SSW 1.0 mph 2.0 mph 91% 0.00 in
01:04 28.6 °F 26.3 °F 30.27 in Calm   2.0 mph 91% 0.00 in
01:09 28.3 °F 26.0 °F 30.27 in Calm     91% 0.00 in
01:14 28.1 °F 25.8 °F 30.27 in Calm     91% 0.00 in
01:19 28.0 °F 25.7 °F 30.27 in Calm     91% 0.00 in
01:24 28.0 °F 25.7 °F 30.27 in Calm     91% 0.00 in
01:29 27.6 °F 25.3 °F 30.27 in Calm     91% 0.00 in
01:34 27.6 °F 25.6 °F 30.27 in Calm     92% 0.00 in
01:39 27.6 °F 25.6 °F 30.27 in Calm     92% 0.00 in
01:44 27.9 °F 25.9 °F 30.27 in SW 1.0 mph 3.0 mph 92% 0.00 in
01:49 28.8 °F 27.0 °F 30.27 in SW 1.0 mph 4.0 mph 93% 0.00 in
01:54 29.6 °F 27.8 °F 30.27 in SW 2.0 mph 4.0 mph 93% 0.00 in
01:59 29.8 °F 28.0 °F 30.27 in SW 2.0 mph 4.0 mph 93% 0.00 in
02:04 30.1 °F 28.1 °F 30.27 in SW 2.0 mph 4.0 mph 92% 0.00 in
02:09 30.1 °F 28.1 °F 30.27 in SW 1.0 mph 3.0 mph 92% 0.00 in
02:14 29.7 °F 27.7 °F 30.27 in Calm   2.0 mph 92% 0.00 in
02:19 29.5 °F 27.5 °F 30.27 in SW 1.0 mph 2.0 mph 92% 0.00 in
02:24 29.4 °F 27.4 °F 30.27 in Calm   2.0 mph 92% 0.00 in
02:29 29.3 °F 27.3 °F 30.27 in Calm   2.0 mph 92% 0.00 in
02:34 29.1 °F 27.3 °F 30.27 in Calm   2.0 mph 93% 0.00 in
02:39 29.0 °F 27.2 °F 30.27 in Calm     93% 0.00 in
02:44 28.8 °F 26.8 °F 30.27 in Calm     92% 0.00 in
02:49 28.6 °F 26.6 °F 30.27 in Calm     92% 0.00 in
02:54 28.2 °F 26.2 °F 30.26 in Calm     92% 0.00 in
02:59 28.1 °F 26.1 °F 30.26 in Calm     92% 0.00 in
03:04 27.7 °F 25.7 °F 30.26 in Calm     92% 0.00 in
03:14 27.2 °F 25.2 °F 30.27 in Calm     92% 0.00 in
03:19 27.0 °F 25.0 °F 30.26 in Calm     92% 0.00 in
03:24 26.9 °F 24.9 °F 30.26 in Calm     92% 0.00 in
03:29 26.6 °F 24.6 °F 30.26 in Calm     92% 0.00 in
03:34 26.4 °F 24.4 °F 30.26 in Calm     92% 0.00 in
03:39 26.1 °F 24.1 °F 30.26 in Calm     92% 0.00 in
03:44 25.7 °F 23.7 °F 30.26 in Calm     92% 0.00 in
03:49 25.8 °F 24.1 °F 30.26 in Calm     93% 0.00 in
03:54 25.6 °F 23.6 °F 30.27 in Calm     92% 0.00 in
03:59 25.7 °F 24.0 °F 30.27 in Calm     93% 0.00 in
04:04 25.8 °F 23.8 °F 30.27 in Calm     92% 0.00 in
04:09 25.8 °F 24.1 °F 30.27 in Calm     93% 0.00 in
04:14 26.1 °F 24.4 °F 30.27 in Calm     93% 0.00 in
04:19 26.3 °F 24.6 °F 30.27 in Calm     93% 0.00 in
04:24 26.3 °F 24.6 °F 30.27 in Calm     93% 0.00 in
04:29 26.3 °F 24.6 °F 30.27 in Calm     93% 0.00 in
04:34 26.3 °F 24.6 °F 30.27 in Calm     93% 0.00 in
04:39 26.1 °F 24.1 °F 30.27 in Calm     92% 0.00 in
04:44 26.0 °F 24.3 °F 30.26 in Calm     93% 0.00 in
04:49 25.8 °F 23.8 °F 30.27 in Calm     92% 0.00 in
04:54 25.9 °F 24.2 °F 30.26 in Calm     93% 0.00 in
04:59 25.8 °F 24.1 °F 30.26 in Calm     93% 0.00 in
05:04 25.9 °F 24.2 °F 30.26 in Calm     93% 0.00 in
05:09 25.9 °F 23.9 °F 30.26 in Calm     92% 0.00 in
05:14 25.7 °F 23.7 °F 30.26 in Calm     92% 0.00 in
05:19 25.7 °F 24.0 °F 30.26 in Calm     93% 0.00 in
05:24 25.5 °F 23.5 °F 30.26 in Calm     92% 0.00 in
05:29 25.7 °F 23.7 °F 30.25 in Calm     92% 0.00 in
05:34 26.0 °F 24.3 °F 30.25 in South 1.0 mph 3.0 mph 93% 0.00 in
05:39 26.0 °F 24.0 °F 30.25 in South 1.0 mph 3.0 mph 92% 0.00 in
05:44 25.5 °F 23.5 °F 30.25 in Calm     92% 0.00 in
05:49 25.2 °F 23.2 °F 30.25 in Calm     92% 0.00 in
05:54 25.0 °F 23.0 °F 30.25 in Calm     92% 0.00 in
05:59 24.8 °F 22.8 °F 30.25 in Calm     92% 0.00 in
06:04 25.0 °F 23.0 °F 30.25 in Calm     92% 0.00 in
06:09 25.0 °F 23.0 °F 30.25 in Calm     92% 0.00 in
06:14 25.2 °F 23.5 °F 30.24 in Calm     93% 0.00 in
06:19 25.3 °F 23.3 °F 30.24 in Calm     92% 0.00 in
06:24 25.6 °F 23.6 °F 30.24 in Calm     92% 0.00 in
06:29 26.0 °F 24.0 °F 30.24 in South 1.0 mph 2.0 mph 92% 0.00 in
06:34 26.7 °F 24.9 °F 30.23 in SSE 2.0 mph 3.0 mph 93% 0.00 in
06:39 27.2 °F 25.4 °F 30.23 in SSE 2.0 mph 3.0 mph 93% 0.00 in
06:44 26.8 °F 24.8 °F 30.24 in Calm   3.0 mph 92% 0.00 in
06:49 26.3 °F 24.3 °F 30.24 in Calm     92% 0.00 in
06:54 25.9 °F 23.6 °F 30.24 in Calm     91% 0.00 in
06:59 26.1 °F 24.1 °F 30.24 in Calm     92% 0.00 in
07:04 26.5 °F 24.5 °F 30.23 in Calm   3.0 mph 92% 0.00 in
07:09 27.0 °F 25.0 °F 30.23 in SSE 1.0 mph 3.0 mph 92% 0.00 in
07:14 27.4 °F 25.4 °F 30.23 in South 1.0 mph 3.0 mph 92% 0.00 in
07:19 27.8 °F 25.8 °F 30.22 in South 1.0 mph 3.0 mph 92% 0.00 in
07:24 27.8 °F 25.5 °F 30.22 in South 1.0 mph 2.0 mph 91% 0.00 in
07:29 27.7 °F 25.4 °F 30.22 in SSE 1.0 mph 2.0 mph 91% 0.00 in
07:34 27.9 °F 25.6 °F 30.22 in Calm   2.0 mph 91% 0.00 in
07:39 28.1 °F 25.8 °F 30.22 in Calm     91% 0.00 in
07:44 28.5 °F 26.2 °F 30.22 in Calm     91% 0.00 in
07:49 29.0 °F 26.7 °F 30.21 in Calm     91% 0.00 in
07:59 29.4 °F 27.1 °F 30.21 in Calm   3.0 mph 91% 0.00 in
08:04 29.6 °F 27.0 °F 30.20 in SE 2.0 mph 3.0 mph 90% 0.00 in
08:09 29.7 °F 27.1 °F 30.20 in SSE 1.0 mph 3.0 mph 90% 0.00 in
08:14 30.0 °F 27.4 °F 30.20 in SSE 2.0 mph 4.0 mph 90% 0.00 in
08:19 30.4 °F 27.8 °F 30.20 in SSE 2.0 mph 4.0 mph 90% 0.00 in
08:24 30.6 °F 27.7 °F 30.19 in SSE 3.0 mph 7.0 mph 89% 0.00 in
08:29 30.9 °F 28.0 °F 30.19 in SSE 3.0 mph 7.0 mph 89% 0.00 in
08:34 31.1 °F 28.2 °F 30.19 in SSE 2.0 mph 5.0 mph 89% 0.00 in
08:39 31.4 °F 28.3 °F 30.19 in SSW 3.0 mph 4.0 mph 88% 0.00 in
08:44 31.6 °F 28.5 °F 30.19 in SE 2.0 mph 3.0 mph 88% 0.00 in
08:49 31.8 °F 28.4 °F 30.19 in SSE 2.0 mph 3.0 mph 87% 0.00 in
08:54 32.1 °F 28.7 °F 30.18 in SSE 3.0 mph 3.0 mph 87% 0.00 in
08:59 32.2 °F 28.5 °F 30.19 in SSE 3.0 mph 4.0 mph 86% 0.00 in
09:04 32.6 °F 28.9 °F 30.19 in Calm   3.0 mph 86% 0.00 in
09:09 32.8 °F 29.1 °F 30.19 in South 1.0 mph 3.0 mph 86% 0.00 in
09:14 32.8 °F 28.8 °F 30.20 in SW 2.0 mph 3.0 mph 85% 0.00 in
09:19 32.7 °F 28.7 °F 30.20 in SW 1.0 mph 3.0 mph 85% 0.00 in
09:24 32.7 °F 29.0 °F 30.20 in Calm   3.0 mph 86% 0.00 in
09:29 33.0 °F 29.3 °F 30.20 in SW 1.0 mph 3.0 mph 86% 0.00 in
09:34 33.3 °F 29.3 °F 30.19 in SSW 1.0 mph 3.0 mph 85% 0.00 in
09:39 33.5 °F 29.5 °F 30.20 in SW 2.0 mph 3.0 mph 85% 0.00 in
09:44 33.6 °F 29.6 °F 30.20 in Calm   3.0 mph 85% 0.00 in
09:49 33.8 °F 29.8 °F 30.21 in Calm   2.0 mph 85% 0.00 in
09:54 33.9 °F 29.9 °F 30.21 in Calm   2.0 mph 85% 0.00 in
09:59 34.1 °F 29.8 °F 30.21 in Calm   2.0 mph 84% 0.00 in
10:04 34.3 °F 30.0 °F 30.21 in Calm   2.0 mph 84% 0.00 in
10:09 34.4 °F 30.1 °F 30.21 in South 2.0 mph 3.0 mph 84% 0.00 in
10:14 34.6 °F 30.0 °F 30.21 in SW 4.0 mph 4.0 mph 83% 0.00 in
10:19 34.8 °F 30.2 °F 30.21 in SW 2.0 mph 4.0 mph 83% 0.00 in
10:24 34.8 °F 30.2 °F 30.21 in SW 2.0 mph 5.0 mph 83% 0.00 in
10:29 35.0 °F 30.1 °F 30.21 in SSW 2.0 mph 5.0 mph 82% 0.00 in
10:34 35.0 °F 30.1 °F 30.21 in SSW 2.0 mph 5.0 mph 82% 0.00 in
10:39 35.1 °F 30.2 °F 30.21 in SSW 2.0 mph 5.0 mph 82% 0.00 in
10:44 35.2 °F 30.3 °F 30.21 in SSW 2.0 mph 4.0 mph 82% 0.00 in
10:49 35.4 °F 30.5 °F 30.21 in SSW 2.0 mph 4.0 mph 82% 0.00 in
10:54 35.5 °F 30.2 °F 30.21 in South 1.0 mph 4.0 mph 81% 0.00 in
10:59 35.7 °F 30.4 °F 30.21 in SW 2.0 mph 5.0 mph 81% 0.00 in
11:04 35.8 °F 30.2 °F 30.21 in SW 4.0 mph 6.0 mph 80% 0.00 in
11:09 35.9 °F 30.3 °F 30.21 in Calm   7.0 mph 80% 0.00 in
11:14 35.9 °F 30.3 °F 30.21 in South 4.0 mph 7.0 mph 80% 0.00 in
11:19 36.1 °F 30.5 °F 30.21 in West 5.0 mph 6.0 mph 80% 0.00 in
11:24 36.2 °F 30.3 °F 30.21 in SW 3.0 mph 8.0 mph 79% 0.00 in
11:29 36.4 °F 30.5 °F 30.21 in SW 3.0 mph 8.0 mph 79% 0.00 in
11:39 36.5 °F 30.3 °F 30.20 in South 2.0 mph 4.0 mph 78% 0.00 in
11:44 36.6 °F 30.4 °F 30.20 in WSW 2.0 mph 5.0 mph 78% 0.00 in
11:49 36.8 °F 30.6 °F 30.20 in SSW 1.0 mph 4.0 mph 78% 0.00 in
11:54 36.8 °F 30.3 °F 30.19 in SSW 4.0 mph 10.0 mph 77% 0.00 in
11:59 36.7 °F 30.2 °F 30.19 in SSW 3.0 mph 10.0 mph 77% 0.00 in
12:04 36.9 °F 30.4 °F 30.19 in SSW 4.0 mph 8.0 mph 77% 0.00 in
12:09 37.3 °F 30.7 °F 30.19 in SSW 3.0 mph 8.0 mph 77% 0.00 in
12:14 37.7 °F 30.8 °F 30.19 in SSW 2.0 mph 4.0 mph 76% 0.00 in
12:19 37.9 °F 30.7 °F 30.18 in Calm   6.0 mph 75% 0.00 in
12:24 38.1 °F 30.9 °F 30.18 in South 2.0 mph 3.0 mph 75% 0.00 in
12:29 38.2 °F 31.0 °F 30.18 in South 2.0 mph 5.0 mph 75% 0.00 in
12:34 38.3 °F 30.7 °F 30.17 in South 3.0 mph 6.0 mph 74% 0.00 in
12:39 38.4 °F 30.5 °F 30.17 in SSW 3.0 mph 7.0 mph 73% 0.00 in
12:44 38.5 °F 30.6 °F 30.17 in SSW 3.0 mph 7.0 mph 73% 0.00 in
12:49 38.6 °F 30.4 °F 30.18 in SW 3.0 mph 7.0 mph 72% 0.00 in
12:54 39.1 °F 30.8 °F 30.18 in SSW 3.0 mph 7.0 mph 72% 0.00 in
12:59 39.3 °F 30.7 °F 30.18 in WSW 3.0 mph 8.0 mph 71% 0.00 in
13:04 39.0 °F 30.4 °F 30.17 in South 2.0 mph 11.0 mph 71% 0.00 in
13:09 39.1 °F 30.5 °F 30.18 in SSW 3.0 mph 8.0 mph 71% 0.00 in
13:14 39.4 °F 30.4 °F 30.18 in SW 7.0 mph 9.0 mph 70% 0.00 in
13:19 39.6 °F 30.6 °F 30.17 in South 3.0 mph 9.0 mph 70% 0.00 in
13:24 40.0 °F 31.0 °F 30.17 in SSW 3.0 mph 11.0 mph 70% 0.00 in
13:29 40.3 °F 30.9 °F 30.17 in SW 4.0 mph 11.0 mph 69% 0.00 in
13:34 40.4 °F 31.0 °F 30.17 in WSW 4.0 mph 9.0 mph 69% 0.00 in
13:39 40.3 °F 30.6 °F 30.16 in WSW 5.0 mph 9.0 mph 68% 0.00 in
13:44 40.2 °F 30.5 °F 30.16 in WSW 5.0 mph 12.0 mph 68% 0.00 in
13:49 40.3 °F 30.6 °F 30.16 in WSW 5.0 mph 12.0 mph 68% 0.00 in
13:54 40.2 °F 30.8 °F 30.16 in SW 6.0 mph 11.0 mph 69% 0.00 in
13:59 40.5 °F 31.1 °F 30.16 in WSW 6.0 mph 9.0 mph 69% 0.00 in
14:04 40.5 °F 30.8 °F 30.15 in South 9.0 mph 9.0 mph 68% 0.00 in
14:09 40.4 °F 30.7 °F 30.15 in SW 5.0 mph 10.0 mph 68% 0.00 in
14:14 40.5 °F 31.1 °F 30.15 in SSW 5.0 mph 10.0 mph 69% 0.00 in
14:19 40.4 °F 31.0 °F 30.15 in SSW 3.0 mph 11.0 mph 69% 0.00 in
14:24 40.2 °F 30.8 °F 30.14 in SW 5.0 mph 10.0 mph 69% 0.00 in
14:29 40.3 °F 30.9 °F 30.14 in SSW 7.0 mph 11.0 mph 69% 0.00 in
14:34 40.0 °F 30.6 °F 30.13 in SW 2.0 mph 9.0 mph 69% 0.00 in
14:39 40.0 °F 31.0 °F 30.13 in SW 5.0 mph 9.0 mph 70% 0.00 in
14:44 40.0 °F 30.6 °F 30.13 in SW 5.0 mph 9.0 mph 69% 0.00 in
14:49 39.8 °F 30.8 °F 30.13 in SSW 5.0 mph 9.0 mph 70% 0.00 in
14:54 39.8 °F 30.8 °F 30.12 in SW 5.0 mph 9.0 mph 70% 0.00 in
14:59 39.8 °F 30.8 °F 30.12 in SW 4.0 mph 10.0 mph 70% 0.00 in
15:04 39.8 °F 30.8 °F 30.12 in SW 4.0 mph 10.0 mph 70% 0.00 in
15:09 39.7 °F 30.7 °F 30.12 in SW 4.0 mph 8.0 mph 70% 0.00 in
15:14 39.9 °F 30.9 °F 30.12 in WSW 4.0 mph 6.0 mph 70% 0.00 in
15:19 39.9 °F 30.9 °F 30.11 in SW 3.0 mph 7.0 mph 70% 0.00 in
15:24 39.9 °F 30.9 °F 30.11 in SW 4.0 mph 8.0 mph 70% 0.00 in
15:29 40.0 °F 31.0 °F 30.10 in SW 3.0 mph 6.0 mph 70% 0.00 in
15:34 40.1 °F 31.1 °F 30.10 in WSW 4.0 mph 7.0 mph 70% 0.00 in
15:39 40.1 °F 31.1 °F 30.10 in West 4.0 mph 6.0 mph 70% 0.00 in
15:44 40.0 °F 31.0 °F 30.10 in WSW 4.0 mph 9.0 mph 70% 0.00 in
15:49 39.9 °F 30.9 °F 30.10 in WSW 4.0 mph 9.0 mph 70% 0.00 in
15:54 39.9 °F 30.9 °F 30.09 in SW 4.0 mph 7.0 mph 70% 0.00 in
15:59 39.9 °F 30.9 °F 30.09 in SW 3.0 mph 6.0 mph 70% 0.00 in
16:04 39.9 °F 31.3 °F 30.09 in SW 3.0 mph 6.0 mph 71% 0.00 in
16:09 40.0 °F 31.4 °F 30.09 in SW 2.0 mph 5.0 mph 71% 0.00 in
16:14 40.0 °F 31.0 °F 30.09 in West 2.0 mph 6.0 mph 70% 0.00 in
16:19 40.0 °F 31.0 °F 30.09 in SSW 2.0 mph 6.0 mph 70% 0.00 in
16:24 40.1 °F 31.1 °F 30.09 in SSW 2.0 mph 7.0 mph 70% 0.00 in
16:29 40.1 °F 31.1 °F 30.08 in SW 4.0 mph 7.0 mph 70% 0.00 in
16:34 40.2 °F 31.5 °F 30.08 in SSW 3.0 mph 5.0 mph 71% 0.00 in
16:39 40.4 °F 31.4 °F 30.08 in SW 4.0 mph 6.0 mph 70% 0.00 in
16:44 40.5 °F 31.5 °F 30.08 in SW 3.0 mph 6.0 mph 70% 0.00 in
16:49 40.6 °F 31.6 °F 30.08 in SW 2.0 mph 5.0 mph 70% 0.00 in
16:54 40.6 °F 31.6 °F 30.08 in SW 3.0 mph 6.0 mph 70% 0.00 in
16:59 40.5 °F 31.5 °F 30.08 in SW 4.0 mph 8.0 mph 70% 0.00 in
17:04 40.4 °F 31.4 °F 30.08 in SW 3.0 mph 7.0 mph 70% 0.00 in
17:09 40.3 °F 31.6 °F 30.08 in SSW 4.0 mph 7.0 mph 71% 0.00 in
17:14 40.2 °F 31.2 °F 30.08 in WSW 3.0 mph 7.0 mph 70% 0.00 in
17:19 40.2 °F 31.2 °F 30.08 in SW 4.0 mph 7.0 mph 70% 0.00 in
17:24 40.2 °F 31.2 °F 30.08 in WSW 4.0 mph 8.0 mph 70% 0.00 in
17:29 40.4 °F 31.4 °F 30.07 in WSW 3.0 mph 5.0 mph 70% 0.00 in
17:39 40.4 °F 31.4 °F 30.07 in West 1.0 mph 6.0 mph 70% 0.00 in
17:44 40.3 °F 31.3 °F 30.07 in WSW 6.0 mph 7.0 mph 70% 0.00 in
17:49 40.1 °F 31.4 °F 30.07 in WSW 3.0 mph 7.0 mph 71% 0.00 in
17:54 40.0 °F 31.4 °F 30.07 in West 3.0 mph 6.0 mph 71% 0.00 in
17:59 40.0 °F 31.4 °F 30.07 in West 2.0 mph 5.0 mph 71% 0.00 in
18:04 40.0 °F 31.4 °F 30.07 in SW 3.0 mph 4.0 mph 71% 0.00 in
18:09 40.0 °F 31.4 °F 30.07 in WSW 2.0 mph 4.0 mph 71% 0.00 in
18:14 40.0 °F 31.4 °F 30.06 in Calm   5.0 mph 71% 0.00 in
18:19 40.0 °F 31.4 °F 30.06 in SW 2.0 mph 4.0 mph 71% 0.00 in
18:24 39.9 °F 31.3 °F 30.06 in SW 2.0 mph 3.0 mph 71% 0.00 in
18:29 39.9 °F 31.3 °F 30.06 in SSW 1.0 mph 4.0 mph 71% 0.00 in
18:34 39.8 °F 31.5 °F 30.06 in SW 3.0 mph 4.0 mph 72% 0.00 in
18:39 39.8 °F 31.5 °F 30.06 in Calm   4.0 mph 72% 0.00 in
18:44 39.7 °F 31.4 °F 30.06 in SW 3.0 mph 3.0 mph 72% 0.00 in
18:49 39.6 °F 31.3 °F 30.06 in SW 1.0 mph 4.0 mph 72% 0.00 in
18:54 39.6 °F 31.3 °F 30.06 in SW 1.0 mph 4.0 mph 72% 0.00 in
18:59 39.5 °F 31.2 °F 30.06 in WSW 1.0 mph 4.0 mph 72% 0.00 in
19:04 39.4 °F 31.1 °F 30.06 in WSW 1.0 mph 4.0 mph 72% 0.00 in
19:09 39.3 °F 31.0 °F 30.06 in WSW 1.0 mph 3.0 mph 72% 0.00 in
19:14 39.1 °F 31.2 °F 30.06 in WSW 1.0 mph 3.0 mph 73% 0.00 in
19:19 39.0 °F 31.1 °F 30.06 in SW 2.0 mph 3.0 mph 73% 0.00 in
19:24 38.9 °F 31.0 °F 30.06 in SW 2.0 mph 3.0 mph 73% 0.00 in
19:29 38.8 °F 30.9 °F 30.06 in SW 3.0 mph 3.0 mph 73% 0.00 in
19:34 38.8 °F 30.9 °F 30.06 in SSW 3.0 mph 4.0 mph 73% 0.00 in
19:39 38.7 °F 31.1 °F 30.06 in SW 1.0 mph 4.0 mph 74% 0.00 in
19:44 38.6 °F 31.0 °F 30.06 in SSW 4.0 mph 4.0 mph 74% 0.00 in
19:49 38.5 °F 30.9 °F 30.06 in SW 1.0 mph 5.0 mph 74% 0.00 in
19:54 38.4 °F 30.8 °F 30.06 in SW 2.0 mph 5.0 mph 74% 0.00 in
19:59 38.4 °F 30.8 °F 30.06 in SW 2.0 mph 4.0 mph 74% 0.00 in
20:04 38.3 °F 30.7 °F 30.06 in SW 2.0 mph 4.0 mph 74% 0.00 in
20:09 38.3 °F 31.1 °F 30.06 in SW 2.0 mph 4.0 mph 75% 0.00 in
20:14 38.2 °F 31.0 °F 30.06 in SW 1.0 mph 3.0 mph 75% 0.00 in
20:19 38.1 °F 30.9 °F 30.06 in SW 1.0 mph 3.0 mph 75% 0.00 in
20:24 38.1 °F 30.9 °F 30.06 in SW 1.0 mph 3.0 mph 75% 0.00 in
20:29 38.1 °F 30.9 °F 30.06 in SW 1.0 mph 3.0 mph 75% 0.00 in
20:34 38.1 °F 30.9 °F 30.06 in Calm   2.0 mph 75% 0.00 in
20:39 38.0 °F 30.8 °F 30.06 in Calm     75% 0.00 in
20:44 38.0 °F 30.8 °F 30.06 in Calm     75% 0.00 in
20:49 38.0 °F 30.8 °F 30.06 in Calm     75% 0.00 in
20:54 38.0 °F 31.1 °F 30.05 in Calm     76% 0.00 in
20:59 37.9 °F 31.0 °F 30.05 in SSW 1.0 mph 4.0 mph 76% 0.00 in
21:04 37.9 °F 31.0 °F 30.05 in SSW 2.0 mph 4.0 mph 76% 0.00 in
21:09 37.8 °F 30.9 °F 30.05 in WSW 2.0 mph 4.0 mph 76% 0.00 in
21:14 37.8 °F 30.9 °F 30.05 in SW 1.0 mph 4.0 mph 76% 0.00 in
21:19 37.8 °F 30.9 °F 30.05 in SW 2.0 mph 3.0 mph 76% 0.00 in
21:24 37.8 °F 30.9 °F 30.05 in SSW 1.0 mph 3.0 mph 76% 0.00 in
21:29 37.9 °F 31.0 °F 30.05 in WSW 2.0 mph 4.0 mph 76% 0.00 in
21:34 37.9 °F 31.0 °F 30.05 in SW 2.0 mph 4.0 mph 76% 0.00 in
21:39 37.9 °F 31.0 °F 30.05 in SW 1.0 mph 4.0 mph 76% 0.00 in
21:44 37.9 °F 31.0 °F 30.05 in Calm   2.0 mph 76% 0.00 in
21:49 37.9 °F 31.0 °F 30.05 in Calm     76% 0.00 in
21:54 37.8 °F 30.9 °F 30.05 in Calm     76% 0.00 in
21:59 37.9 °F 31.0 °F 30.05 in Calm     76% 0.00 in
22:04 38.0 °F 31.1 °F 30.05 in Calm   3.0 mph 76% 0.00 in
22:09 37.9 °F 31.0 °F 30.05 in WSW 1.0 mph 3.0 mph 76% 0.00 in
22:14 38.0 °F 31.1 °F 30.05 in WSW 1.0 mph 3.0 mph 76% 0.00 in
22:19 38.0 °F 31.1 °F 30.05 in WSW 1.0 mph 2.0 mph 76% 0.00 in
22:24 38.0 °F 31.1 °F 30.05 in Calm   2.0 mph 76% 0.00 in
22:29 38.0 °F 31.1 °F 30.05 in Calm     76% 0.00 in
22:34 38.1 °F 31.2 °F 30.04 in Calm     76% 0.00 in
22:44 38.1 °F 31.2 °F 30.04 in WSW 1.0 mph 2.0 mph 76% 0.00 in
22:49 38.1 °F 31.2 °F 30.04 in Calm   3.0 mph 76% 0.00 in
22:54 38.1 °F 31.2 °F 30.04 in WSW 1.0 mph 3.0 mph 76% 0.00 in
22:59 38.0 °F 31.4 °F 30.04 in Calm   1.0 mph 77% 0.00 in
23:04 38.0 °F 31.4 °F 30.04 in Calm   2.0 mph 77% 0.00 in
23:09 38.0 °F 31.4 °F 30.04 in Calm   2.0 mph 77% 0.00 in
23:14 37.9 °F 31.3 °F 30.04 in Calm   1.0 mph 77% 0.00 in
23:19 37.9 °F 31.3 °F 30.04 in Calm     77% 0.00 in
23:24 38.0 °F 31.4 °F 30.03 in Calm     77% 0.00 in
23:29 38.1 °F 31.5 °F 30.04 in Calm     77% 0.00 in
23:34 38.2 °F 31.6 °F 30.04 in Calm     77% 0.00 in
23:39 38.2 °F 31.6 °F 30.04 in Calm   2.0 mph 77% 0.00 in
23:44 38.1 °F 31.5 °F 30.03 in Calm   2.0 mph 77% 0.00 in
23:49 38.0 °F 31.4 °F 30.02 in Calm   2.0 mph 77% 0.00 in
23:54 37.9 °F 31.3 °F 30.02 in Calm   2.0 mph 77% 0.00 in
23:59 37.7 °F 31.1 °F 30.02 in SW 1.0 mph 2.0 mph 77% 0.00 in
Buffalo, New York, USA
Compliments of Weather Underground - 2.5 mb